Time;durP1;ratioP1;P1;durP2;ratioP2;P2;SDS_P1;SDS_P2;PMS_P1;PMS_P2;Temp;Humidity;BMP_temperature;BMP_pressure;BME280_temperature;BME280_humidity;BME280_pressure;Samples;Min_cycle;Max_cycle;Signal;HPM_P1;HPM_P2
2021/08/21 00:09:46;;;;;;;9.00;5.10;;;15.40;99.90;;;;;;21031935;28;20056;-79
2021/08/21 00:19:46;;;;;;;6.93;4.57;;;15.20;99.90;;;;;;21013071;28;20041;-79
2021/08/21 00:29:47;;;;;;;10.20;5.07;;;15.00;99.90;;;;;;21015940;28;20047;-79
2021/08/21 00:39:48;;;;;;;7.73;5.20;;;15.00;99.90;;;;;;21039421;28;20025;-78
2021/08/21 00:49:54;;;;;;;13.47;4.97;;;14.80;99.90;;;;;;21008595;28;20047;-78
2021/08/21 00:59:55;;;;;;;6.70;4.68;;;14.70;99.90;;;;;;21028232;28;20059;-79
2021/08/21 01:09:59;;;;;;;9.27;4.53;;;14.70;99.90;;;;;;21013607;28;20044;-78
2021/08/21 01:20:00;;;;;;;11.85;5.47;;;14.60;99.90;;;;;;21077071;28;20119;-79
2021/08/21 01:30:02;;;;;;;8.48;4.88;;;14.30;99.90;;;;;;21052617;28;20487;-78
2021/08/21 01:40:17;;;;;;;6.35;4.43;;;14.40;99.90;;;;;;21032966;28;20063;-79
2021/08/21 01:50:19;;;;;;;12.60;5.33;;;14.50;99.90;;;;;;21033837;28;20028;-78
2021/08/21 02:00:28;;;;;;;6.82;4.97;;;14.30;99.90;;;;;;21023060;28;20086;-79
2021/08/21 02:10:32;;;;;;;7.57;4.68;;;14.10;99.90;;;;;;21036306;28;20536;-79
2021/08/21 02:20:33;;;;;;;13.17;4.83;;;14.30;99.90;;;;;;21027965;28;20028;-78
2021/08/21 02:30:37;;;;;;;5.15;3.85;;;14.20;99.90;;;;;;21024111;28;20119;-78
2021/08/21 02:40:38;;;;;;;7.60;4.72;;;14.30;99.90;;;;;;21042452;28;20039;-78
2021/08/21 02:50:39;;;;;;;8.37;4.23;;;14.10;99.90;;;;;;21018515;28;20028;-78
2021/08/21 03:00:41;;;;;;;9.37;5.37;;;14.40;99.90;;;;;;21032563;28;20505;-78
2021/08/21 03:10:45;;;;;;;8.05;4.70;;;14.50;99.90;;;;;;21035815;28;20035;-78
2021/08/21 03:20:46;;;;;;;7.40;4.40;;;14.30;99.90;;;;;;21023279;28;20063;-79
2021/08/21 03:30:47;;;;;;;;;;;14.10;99.90;;;;;;21022765;28;20123;-78
2021/08/21 03:40:54;;;;;;;9.30;4.70;;;14.40;99.90;;;;;;21012792;28;19919;-78
2021/08/21 03:50:55;;;;;;;8.17;4.70;;;14.50;99.90;;;;;;21030182;28;20033;-78
2021/08/21 04:00:56;;;;;;;7.20;4.67;;;14.50;99.90;;;;;;21012006;28;20048;-78
2021/08/21 04:10:57;;;;;;;6.67;4.70;;;14.60;99.90;;;;;;21008433;28;20094;-78
2021/08/21 04:20:58;;;;;;;6.97;4.30;;;14.60;99.90;;;;;;21050003;23;20490;-78
2021/08/21 04:31:00;;;;;;;6.60;4.90;;;14.60;99.90;;;;;;20991590;28;20497;-78
2021/08/21 04:41:02;;;;;;;8.20;4.90;;;14.60;99.90;;;;;;21061124;28;20077;-77
2021/08/21 04:51:03;;;;;;;10.60;5.47;;;14.50;99.90;;;;;;21079267;28;20027;-77
2021/08/21 05:01:07;;;;;;;9.45;5.53;;;14.30;99.90;;;;;;21060063;28;20413;-77
2021/08/21 05:11:15;;;;;;;13.25;5.95;;;14.50;99.90;;;;;;21062020;28;20042;-77
2021/08/21 05:21:30;;;;;;;8.77;6.23;;;14.60;99.90;;;;;;21142741;28;20035;-78
2021/08/21 05:31:32;;;;;;;11.75;6.57;;;14.70;99.90;;;;;;21142079;28;20924;-78
2021/08/21 05:41:33;;;;;;;8.90;6.10;;;15.00;99.90;;;;;;21159593;28;20066;-77
2021/08/21 05:51:34;;;;;;;8.80;6.10;;;15.30;99.90;;;;;;21139944;28;20508;-78
2021/08/21 06:01:38;;;;;;;9.30;6.30;;;15.60;99.90;;;;;;21158431;28;20039;-78
2021/08/21 06:11:39;;;;;;;12.57;6.65;;;15.90;99.90;;;;;;21136818;28;20070;-77
2021/08/21 06:21:42;;;;;;;14.03;6.50;;;16.40;99.90;;;;;;21158401;28;20473;-77
2021/08/21 06:31:43;;;;;;;10.63;6.50;;;17.00;99.90;;;;;;21167867;28;20049;-77
2021/08/21 06:41:43;;;;;;;8.50;5.70;;;17.60;99.90;;;;;;21157152;28;20051;-77
2021/08/21 06:51:44;;;;;;;8.90;6.00;;;18.00;99.90;;;;;;21139157;28;20031;-76
2021/08/21 07:01:45;;;;;;;8.20;5.73;;;18.50;99.90;;;;;;21141011;28;20044;-77
2021/08/21 07:11:46;;;;;;;8.10;5.47;;;18.60;99.90;;;;;;21171861;28;20031;-77
2021/08/21 07:21:52;;;;;;;9.80;5.67;;;18.10;99.90;;;;;;21170844;28;20034;-78
2021/08/21 07:31:54;;;;;;;8.93;5.20;;;19.00;99.90;;;;;;21170311;28;20043;-78
2021/08/21 07:41:55;;;;;;;9.82;4.57;;;20.40;99.90;;;;;;21170300;28;20103;-78
2021/08/21 07:51:56;;;;;;;11.43;4.93;;;21.10;99.90;;;;;;21150633;28;20062;-77
2021/08/21 08:01:56;;;;;;;8.80;4.90;;;21.00;99.90;;;;;;21167963;28;20493;-77
2021/08/21 08:11:57;;;;;;;6.00;4.00;;;21.60;99.90;;;;;;21167055;28;20036;-77
2021/08/21 08:21:58;;;;;;;8.03;4.60;;;22.30;99.90;;;;;;21154048;28;20494;-78
2021/08/21 08:31:59;;;;;;;7.23;5.17;;;23.20;99.90;;;;;;21129710;28;20020;-79
2021/08/21 08:42:00;;;;;;;12.50;4.80;;;23.90;99.90;;;;;;21131761;28;20121;-78
2021/08/21 08:52:00;;;;;;;;;;;24.00;99.90;;;;;;21162563;28;20281;-78
2021/08/21 09:02:02;;;;;;;10.10;5.10;;;24.60;99.90;;;;;;21144417;28;20286;-78
2021/08/21 09:12:03;;;;;;;8.20;5.65;;;25.30;99.90;;;;;;21148404;28;20037;-77
2021/08/21 09:22:06;;;;;;;7.97;4.88;;;25.70;99.90;;;;;;21128690;28;20059;-76
2021/08/21 09:32:07;;;;;;;7.60;5.25;;;26.20;99.90;;;;;;21168004;28;20028;-77
2021/08/21 09:42:10;;;;;;;6.10;4.30;;;25.70;99.90;;;;;;21141873;28;20081;-77
2021/08/21 09:52:14;;;;;;;7.03;4.72;;;26.70;99.90;;;;;;21117832;28;20168;-76
2021/08/21 10:02:16;;;;;;;7.05;4.50;;;27.60;99.90;;;;;;21158236;28;20477;-75
2021/08/21 10:12:16;;;;;;;8.00;5.85;;;28.40;99.90;;;;;;21166224;28;20592;-76
2021/08/21 10:22:20;;;;;;;9.52;5.63;;;27.60;99.90;;;;;;21157587;28;20125;-77
2021/08/21 10:32:39;;;;;;;7.90;4.50;;;27.50;99.90;;;;;;21156512;28;20137;-77
2021/08/21 10:42:52;;;;;;;8.73;4.13;;;29.10;99.90;;;;;;21170709;28;20397;-78
2021/08/21 10:52:57;;;;;;;8.18;4.80;;;30.10;99.90;;;;;;21172610;28;20080;-78
2021/08/21 11:02:58;;;;;;;7.47;3.50;;;29.40;99.90;;;;;;21171694;28;20031;-78
2021/08/21 11:12:59;;;;;;;6.27;4.40;;;30.20;99.90;;;;;;21170514;28;20019;-78
2021/08/21 11:23:09;;;;;;;5.68;3.28;;;30.70;99.90;;;;;;21170338;28;20289;-78
2021/08/21 11:33:09;;;;;;;5.60;3.37;;;30.60;99.90;;;;;;21164527;28;20036;-78
2021/08/21 11:43:15;;;;;;;5.70;3.40;;;31.70;99.90;;;;;;21125261;28;20047;-77
2021/08/21 11:53:19;;;;;;;4.60;3.33;;;31.20;99.90;;;;;;21129932;28;20027;-78
2021/08/21 12:03:34;;;;;;;6.53;3.20;;;30.10;99.90;;;;;;21161132;28;20033;-78
2021/08/21 12:13:37;;;;;;;6.15;3.42;;;31.30;99.90;;;;;;21118701;28;20041;-77
2021/08/21 12:23:44;;;;;;;6.40;3.40;;;30.60;99.90;;;;;;21106489;28;20028;-77
2021/08/21 12:33:46;;;;;;;5.53;3.05;;;30.10;99.90;;;;;;21103692;28;20024;-77
2021/08/21 12:44:16;;;;;;;5.05;3.17;;;30.30;99.90;;;;;;21122306;28;20034;-77
2021/08/21 12:54:27;;;;;;;5.55;3.28;;;30.90;99.90;;;;;;21135377;28;20023;-76
2021/08/21 13:04:28;;;;;;;4.10;3.03;;;31.10;99.90;;;;;;21143222;28;20379;-76
2021/08/21 13:14:29;;;;;;;6.50;4.00;;;30.90;99.90;;;;;;21161893;28;20063;-76
2021/08/21 13:24:32;;;;;;;11.90;4.30;;;30.30;99.90;;;;;;21158789;28;20046;-77
2021/08/21 13:34:33;;;;;;;5.03;3.80;;;30.30;99.90;;;;;;21148392;28;20524;-76
2021/08/21 13:44:34;;;;;;;6.60;3.70;;;31.10;99.90;;;;;;21159574;28;20039;-75
2021/08/21 13:54:35;;;;;;;6.88;3.90;;;30.20;99.90;;;;;;21160747;28;20846;-75
2021/08/21 14:04:37;;;;;;;7.03;3.70;;;30.30;99.90;;;;;;21140838;28;20054;-76
2021/08/21 14:14:38;;;;;;;21.85;6.53;;;30.50;99.90;;;;;;21157493;28;20482;-76
2021/08/21 14:24:39;;;;;;;7.85;3.88;;;30.50;99.90;;;;;;21157676;28;20570;-76
2021/08/21 14:34:40;;;;;;;9.40;4.13;;;30.90;99.90;;;;;;21157761;28;20106;-76
2021/08/21 14:44:40;;;;;;;5.75;3.85;;;30.20;99.90;;;;;;21147565;28;20035;-77
2021/08/21 14:54:41;;;;;;;4.63;3.60;;;30.10;99.90;;;;;;21112375;28;20163;-77
2021/08/21 15:04:42;;;;;;;5.55;4.03;;;30.40;99.90;;;;;;21077405;28;20032;-75
2021/08/21 15:14:43;;;;;;;7.50;4.18;;;30.20;99.90;;;;;;21071600;28;20621;-77
2021/08/21 15:24:45;;;;;;;8.45;4.13;;;30.00;99.90;;;;;;21076703;28;20490;-76
2021/08/21 15:34:47;;;;;;;7.00;4.20;;;29.70;99.90;;;;;;21086049;28;20032;-75
2021/08/21 15:44:48;;;;;;;8.48;4.20;;;29.80;99.90;;;;;;21088721;28;20046;-76
2021/08/21 15:54:48;;;;;;;5.35;3.65;;;29.40;99.90;;;;;;21065974;28;20055;-75
2021/08/21 16:04:49;;;;;;;6.00;3.70;;;29.60;99.90;;;;;;21096848;28;20048;-76
2021/08/21 16:14:50;;;;;;;7.13;4.28;;;29.30;99.90;;;;;;21105097;28;20098;-76
2021/08/21 16:24:51;;;;;;;7.50;3.80;;;28.90;99.90;;;;;;21104630;28;20025;-75
2021/08/21 16:34:52;;;;;;;6.93;3.55;;;28.70;99.90;;;;;;21120545;28;20281;-76
2021/08/21 16:44:53;;;;;;;6.22;4.32;;;28.50;99.90;;;;;;21120508;28;20482;-76
2021/08/21 16:54:54;;;;;;;5.63;3.13;;;28.30;99.90;;;;;;21101302;28;20035;-75
2021/08/21 17:04:55;;;;;;;7.70;4.00;;;28.10;99.90;;;;;;21099962;28;20034;-76
2021/08/21 17:14:56;;;;;;;4.53;3.47;;;27.70;99.90;;;;;;21105426;28;20038;-77
2021/08/21 17:24:57;;;;;;;8.57;4.40;;;27.10;99.90;;;;;;21082447;28;20036;-77
2021/08/21 17:34:58;;;;;;;6.03;4.15;;;26.20;99.90;;;;;;21076485;28;20025;-77
2021/08/21 17:44:59;;;;;;;11.30;4.25;;;25.40;99.90;;;;;;21075934;28;20032;-77
2021/08/21 17:55:00;;;;;;;17.30;4.40;;;25.20;99.90;;;;;;21074822;28;20062;-77
2021/08/21 18:05:00;;;;;;;;;;;24.70;99.90;;;;;;21077573;28;20024;-77
2021/08/21 18:15:05;;;;;;;6.87;4.20;;;24.30;99.90;;;;;;21055992;28;19908;-76
2021/08/21 18:25:08;;;;;;;10.18;5.60;;;23.80;99.90;;;;;;21068514;28;20040;-76
2021/08/21 18:35:10;;;;;;;7.47;5.25;;;23.20;99.90;;;;;;21147056;28;20028;-75
2021/08/21 18:45:11;;;;;;;18.02;5.53;;;23.00;99.90;;;;;;21156873;28;20019;-76
2021/08/21 18:55:12;;;;;;;;;;;22.90;99.90;;;;;;21138574;28;20027;-76
2021/08/21 19:05:13;;;;;;;9.20;5.85;;;22.20;99.90;;;;;;21170540;28;20049;-76
2021/08/21 19:15:14;;;;;;;;;;;21.90;99.90;;;;;;21171679;28;20023;-77
2021/08/21 19:25:17;;;;;;;12.52;8.35;;;21.50;99.90;;;;;;21170342;28;19919;-76
2021/08/21 19:35:18;;;;;;;6.00;4.77;;;21.30;99.90;;;;;;21169892;28;20776;-76
2021/08/21 19:45:19;;;;;;;8.03;5.00;;;21.50;99.90;;;;;;21169240;28;20020;-77
2021/08/21 19:55:19;;;;;;;11.13;6.53;;;21.10;99.90;;;;;;21168431;28;20026;-76
2021/08/21 20:05:21;;;;;;;8.07;5.63;;;20.70;99.90;;;;;;21167349;28;20066;-75
2021/08/21 20:15:22;;;;;;;9.40;5.90;;;21.00;99.90;;;;;;21099637;28;20028;-78
2021/08/21 20:25:23;;;;;;;19.00;13.73;;;20.70;99.90;;;;;;21081191;28;20508;-76
2021/08/21 20:35:24;;;;;;;8.63;5.90;;;20.20;99.90;;;;;;21083400;28;20042;-76
2021/08/21 20:45:25;;;;;;;12.48;6.32;;;19.90;99.90;;;;;;21043110;28;20032;-76
2021/08/21 20:55:26;;;;;;;10.87;6.23;;;20.00;99.90;;;;;;21026445;28;20083;-76
2021/08/21 21:05:27;;;;;;;9.48;5.47;;;19.90;99.90;;;;;;21020892;28;20032;-77
2021/08/21 21:15:28;;;;;;;16.53;9.77;;;19.70;99.90;;;;;;21038137;28;20502;-76
2021/08/21 21:25:29;;;;;;;8.77;5.60;;;19.60;99.90;;;;;;21043674;28;20036;-76
2021/08/21 21:35:30;;;;;;;12.73;7.53;;;19.70;99.90;;;;;;21075563;28;20116;-76
2021/08/21 21:45:31;;;;;;;19.50;10.82;;;19.60;99.90;;;;;;21107036;28;20028;-77
2021/08/21 21:55:32;;;;;;;11.83;7.40;;;19.50;99.90;;;;;;21086548;28;20089;-75
2021/08/21 22:05:34;;;;;;;20.67;11.03;;;19.60;99.90;;;;;;21055809;28;20027;-75
2021/08/21 22:15:35;;;;;;;21.58;10.00;;;19.40;99.90;;;;;;21073151;28;20436;-76
2021/08/21 22:25:36;;;;;;;9.20;5.97;;;19.20;99.90;;;;;;21036551;22;20048;-81
2021/08/21 22:35:36;;;;;;;11.07;6.03;;;19.50;99.90;;;;;;20988139;28;20037;-80
2021/08/21 22:45:38;;;;;;;13.57;8.03;;;19.80;99.90;;;;;;20998907;28;20028;-79
2021/08/21 22:55:42;;;;;;;;;;;19.50;99.90;;;;;;21015562;28;20032;-79
2021/08/21 23:05:42;;;;;;;14.85;7.72;;;19.40;99.90;;;;;;21014089;28;19953;-80
2021/08/21 23:15:43;;;;;;;9.07;6.33;;;19.00;99.90;;;;;;21011616;28;20048;-80
2021/08/21 23:25:44;;;;;;;12.47;7.57;;;19.00;99.90;;;;;;21025291;28;20147;-78
2021/08/21 23:35:46;;;;;;;14.77;8.60;;;19.10;99.90;;;;;;21014773;28;20028;-79
2021/08/21 23:45:47;;;;;;;13.15;8.55;;;19.20;99.90;;;;;;21012420;28;20029;-79
2021/08/21 23:55:48;;;;;;;16.23;8.77;;;19.20;99.90;;;;;;21012182;28;20041;-79
